createdAt,value
2023-03-14T00:01:33.399Z,2.54
2023-03-14T00:04:00.681Z,2.35
2023-03-14T00:06:28.026Z,2.35
2023-03-14T00:08:55.851Z,2.45
2023-03-14T00:11:23.120Z,2.41
2023-03-14T00:13:53.960Z,2.15
2023-03-14T00:16:21.407Z,2.17
2023-03-14T00:18:48.543Z,2.28
2023-03-14T00:21:15.584Z,2.20
2023-03-14T00:23:43.608Z,2.16
2023-03-14T00:26:16.444Z,2.16
2023-03-14T00:28:44.740Z,2.27
2023-03-14T00:31:14.557Z,2.12
2023-03-14T00:33:43.176Z,2.16
2023-03-14T00:36:12.787Z,2.25
2023-03-14T00:38:40.955Z,2.27
2023-03-14T00:41:11.005Z,2.15
2023-03-14T00:43:38.474Z,2.15
2023-03-14T00:46:06.031Z,2.27
2023-03-14T00:48:33.817Z,2.11
2023-03-14T00:51:01.712Z,2.10
2023-03-14T00:53:28.654Z,2.08
2023-03-14T00:55:55.556Z,2.15
2023-03-14T00:58:22.501Z,2.14
2023-03-14T01:00:52.287Z,2.28
2023-03-14T01:03:19.109Z,2.46
2023-03-14T01:05:45.979Z,2.44
2023-03-14T01:08:13.051Z,2.51
2023-03-14T01:10:41.460Z,2.64
2023-03-14T01:13:09.783Z,2.70
2023-03-14T01:15:37.937Z,2.61
2023-03-14T01:18:05.366Z,2.61
2023-03-14T01:20:32.263Z,2.71
2023-03-14T01:22:59.210Z,2.69
2023-03-14T01:25:26.476Z,2.49
2023-03-14T01:27:53.543Z,2.56
2023-03-14T01:30:20.697Z,2.65
2023-03-14T01:32:47.688Z,2.62
2023-03-14T01:35:14.569Z,2.61
2023-03-14T01:37:41.660Z,2.66
2023-03-14T01:40:17.548Z,2.68
2023-03-14T01:42:56.745Z,2.56
2023-03-14T01:46:01.851Z,2.67
2023-03-14T01:48:44.063Z,2.64
2023-03-14T01:51:18.766Z,2.48
2023-03-14T01:53:47.676Z,2.48
2023-03-14T01:56:16.876Z,2.51
2023-03-14T01:58:47.835Z,2.56
2023-03-14T02:01:18.132Z,2.50
2023-03-14T02:03:51.406Z,2.55
2023-03-14T02:06:22.293Z,2.62
2023-03-14T02:08:50.577Z,2.64
2023-03-14T02:11:23.068Z,2.65
2023-03-14T02:14:00.416Z,2.72
2023-03-14T02:16:53.901Z,2.78
2023-03-14T02:20:17.266Z,2.52
2023-03-14T02:22:47.928Z,2.55
2023-03-14T02:25:26.171Z,2.55
2023-03-14T02:27:53.730Z,2.32
2023-03-14T02:30:26.548Z,2.38
2023-03-14T02:33:02.428Z,2.45
2023-03-14T02:35:35.136Z,2.33
2023-03-14T02:38:19.678Z,2.08
2023-03-14T02:40:48.197Z,2.18
2023-03-14T02:43:15.829Z,2.23
2023-03-14T02:45:50.120Z,1.86
2023-03-14T02:49:01.852Z,1.81
2023-03-14T02:51:29.894Z,1.83
2023-03-14T02:53:56.929Z,1.65
2023-03-14T02:56:25.786Z,1.58
2023-03-14T02:58:53.008Z,1.60
2023-03-14T03:01:36.203Z,1.60
2023-03-14T03:04:03.305Z,1.39
2023-03-14T03:06:30.213Z,1.39
2023-03-14T03:08:57.290Z,1.42
2023-03-14T03:11:24.222Z,1.26
2023-03-14T03:13:51.161Z,1.25
2023-03-14T03:16:18.166Z,1.32
2023-03-14T03:18:45.116Z,1.28
2023-03-14T03:21:12.159Z,1.18
2023-03-14T03:23:39.074Z,1.29
2023-03-14T03:26:06.840Z,1.42
2023-03-14T03:28:33.654Z,1.22
2023-03-14T03:31:07.157Z,1.24
2023-03-14T03:33:35.583Z,1.20
2023-03-14T03:36:02.431Z,1.14
2023-03-14T03:38:33.710Z,1.06
2023-03-14T03:41:06.036Z,1.17
2023-03-14T03:43:33.437Z,1.28
2023-03-14T03:46:06.394Z,1.11
2023-03-14T03:48:34.621Z,1.16
2023-03-14T03:51:04.325Z,1.24
2023-03-14T03:53:33.920Z,1.03
2023-03-14T03:56:05.900Z,1.00
2023-03-14T03:58:34.233Z,1.12
2023-03-14T04:01:01.864Z,1.10
2023-03-14T04:03:28.936Z,1.04
2023-03-14T04:06:08.381Z,1.14
2023-03-14T04:08:38.290Z,1.28
2023-03-14T04:11:05.737Z,1.21
2023-03-14T04:14:10.854Z,1.24
2023-03-14T04:16:37.920Z,1.35
2023-03-14T04:19:11.532Z,1.23
2023-03-14T04:21:41.632Z,1.26
2023-03-14T04:24:11.565Z,1.43
2023-03-14T04:26:39.077Z,1.49
2023-03-14T04:29:06.432Z,1.39
2023-03-14T04:31:33.439Z,1.56
2023-03-14T04:34:00.422Z,1.72
2023-03-14T04:36:37.922Z,1.52
2023-03-14T04:39:09.539Z,1.75
2023-03-14T04:41:40.446Z,2.22
2023-03-14T04:44:08.430Z,2.24
2023-03-14T04:46:36.168Z,2.25
2023-03-14T04:49:06.914Z,2.95
2023-03-14T04:51:34.557Z,3.58
2023-03-14T04:54:01.657Z,3.12
2023-03-14T04:56:28.794Z,3.55
2023-03-14T04:58:56.319Z,3.95
2023-03-14T05:01:23.469Z,4.80
2023-03-14T05:04:20.207Z,4.04
2023-03-14T05:06:47.132Z,4.64
2023-03-14T05:09:27.657Z,5.90
2023-03-14T05:12:25.905Z,6.36
2023-03-14T05:14:58.155Z,5.51
2023-03-14T05:17:45.294Z,6.33
2023-03-14T05:20:35.467Z,7.18
2023-03-14T05:23:29.296Z,8.72
2023-03-14T05:26:28.869Z,9.57
2023-03-14T05:29:04.912Z,11.10
2023-03-14T05:31:55.095Z,11.57
2023-03-14T05:34:40.732Z,11.47
2023-03-14T05:37:14.612Z,12.47
2023-03-14T05:40:11.171Z,12.69
2023-03-14T05:43:00.052Z,12.77
2023-03-14T05:45:45.480Z,12.56
2023-03-14T05:48:33.164Z,13.19
2023-03-14T05:51:03.123Z,13.89
2023-03-14T05:53:48.706Z,13.07
2023-03-14T05:56:15.806Z,12.94
2023-03-14T05:59:02.781Z,13.99
2023-03-14T06:01:36.580Z,13.29
2023-03-14T06:04:11.190Z,14.78
2023-03-14T06:06:38.343Z,15.59
2023-03-14T06:09:06.811Z,17.18
2023-03-14T06:11:38.478Z,17.70
2023-03-14T06:14:08.042Z,12.39
2023-03-14T06:16:35.136Z,12.83
2023-03-14T06:19:02.093Z,14.41
2023-03-14T06:21:30.218Z,12.31
2023-03-14T06:23:57.789Z,10.16
2023-03-14T06:26:27.070Z,11.15
2023-03-14T06:28:54.860Z,12.09
2023-03-14T06:31:22.230Z,14.72
2023-03-14T06:34:00.298Z,15.96
2023-03-14T06:36:30.429Z,16.07
2023-03-14T06:38:58.825Z,17.34
2023-03-14T06:41:27.862Z,14.40
2023-03-14T06:43:56.192Z,14.49
2023-03-14T06:46:23.837Z,15.75
2023-03-14T06:48:50.967Z,14.76
2023-03-14T06:51:18.010Z,12.79
2023-03-14T06:53:44.962Z,13.19
2023-03-14T06:56:14.857Z,13.03
2023-03-14T06:58:42.260Z,11.98
2023-03-14T07:01:22.262Z,13.04
2023-03-14T07:03:49.660Z,13.39
2023-03-14T07:06:16.693Z,15.61
2023-03-14T07:08:43.688Z,14.41
2023-03-14T07:11:12.150Z,14.34
2023-03-14T07:13:40.265Z,14.62
2023-03-14T07:16:08.923Z,16.98
2023-03-14T07:18:38.569Z,13.66
2023-03-14T07:21:08.295Z,14.51
2023-03-14T07:23:35.257Z,15.55
2023-03-14T07:40:08.421Z,17.39
2023-03-14T07:42:37.791Z,18.49
2023-03-14T07:45:28.315Z,17.14
2023-03-14T07:47:58.575Z,16.74
2023-03-14T07:50:26.818Z,17.45
2023-03-14T07:52:55.498Z,15.94
2023-03-14T07:55:22.449Z,16.99
2023-03-14T07:57:49.360Z,17.48
2023-03-14T08:00:16.621Z,16.93
2023-03-14T08:02:43.756Z,16.70
2023-03-14T08:05:11.216Z,16.71
2023-03-14T08:07:38.066Z,16.27
2023-03-14T08:10:05.721Z,17.61
2023-03-14T08:12:32.565Z,16.92
2023-03-14T08:15:00.705Z,17.31
2023-03-14T08:17:29.004Z,19.07
2023-03-14T08:19:55.986Z,18.36
2023-03-14T08:22:22.866Z,18.34
2023-03-14T08:24:49.901Z,16.89
2023-03-14T08:27:16.851Z,18.63
2023-03-14T08:29:43.785Z,20.17
2023-03-14T08:32:10.787Z,18.92
2023-03-14T08:34:38.603Z,19.85
2023-03-14T08:37:16.303Z,20.02
2023-03-14T08:39:50.580Z,18.67
2023-03-14T08:42:17.680Z,15.92
2023-03-14T08:44:45.075Z,15.95
2023-03-14T08:47:12.280Z,16.97
2023-03-14T08:49:39.195Z,13.90
2023-03-14T08:52:06.226Z,15.51
2023-03-14T08:54:33.309Z,17.20
2023-03-14T08:57:00.173Z,14.85
2023-03-14T08:59:27.381Z,16.68
2023-03-14T09:01:55.633Z,17.67
2023-03-14T09:04:22.948Z,15.15
2023-03-14T09:06:49.881Z,15.41
2023-03-14T09:09:16.992Z,17.01
2023-03-14T09:11:43.912Z,17.19
2023-03-14T09:14:10.877Z,14.41
2023-03-14T09:16:37.893Z,17.77
2023-03-14T09:19:04.932Z,20.13
2023-03-14T09:21:31.805Z,20.40
2023-03-14T09:23:58.696Z,19.76
2023-03-14T09:26:25.548Z,21.13
2023-03-14T09:28:52.553Z,20.59
2023-03-14T09:31:19.640Z,20.08
2023-03-14T09:33:46.569Z,20.64
2023-03-14T09:36:14.484Z,19.96
2023-03-14T09:38:41.469Z,21.10
2023-03-14T09:41:22.470Z,22.05
2023-03-14T09:43:55.898Z,21.78
2023-03-14T09:46:23.118Z,18.66
2023-03-14T09:48:50.014Z,16.12
2023-03-14T09:51:21.482Z,19.06
2023-03-14T09:53:50.217Z,19.58
2023-03-14T09:56:37.371Z,19.20
2023-03-14T09:59:06.299Z,19.73
2023-03-14T10:01:34.896Z,19.11
2023-03-14T10:04:08.055Z,20.52
2023-03-14T10:06:37.175Z,20.87
2023-03-14T10:09:05.668Z,19.17
2023-03-14T10:11:33.143Z,19.51
2023-03-14T10:14:10.209Z,20.17
2023-03-14T10:16:42.681Z,16.67
2023-03-14T10:19:15.861Z,18.41
2023-03-14T10:21:53.836Z,20.32
2023-03-14T10:24:28.112Z,18.98
2023-03-14T10:26:59.270Z,20.53
2023-03-14T10:29:26.389Z,20.62
2023-03-14T10:32:02.127Z,23.00
2023-03-14T10:34:32.745Z,23.62
2023-03-14T10:37:22.974Z,21.90
2023-03-14T10:39:51.499Z,22.50
2023-03-14T10:42:25.694Z,20.34
2023-03-14T10:44:58.183Z,21.93
2023-03-14T10:47:28.216Z,20.51
2023-03-14T10:49:56.322Z,20.00
2023-03-14T10:52:31.330Z,21.32
2023-03-14T10:55:12.806Z,21.03
2023-03-14T10:57:43.408Z,21.93
2023-03-14T11:00:17.847Z,21.32
2023-03-14T11:03:02.118Z,21.97
2023-03-14T11:05:35.435Z,21.87
2023-03-14T11:08:12.787Z,22.60
2023-03-14T11:10:44.121Z,23.04
2023-03-14T11:13:40.800Z,23.24
2023-03-14T11:16:30.568Z,20.96
2023-03-14T11:19:03.438Z,20.95
2023-03-14T11:22:02.528Z,19.85
2023-03-14T11:24:38.189Z,20.76
2023-03-14T11:27:16.962Z,20.06
2023-03-14T11:30:00.584Z,18.76
2023-03-14T11:32:45.634Z,19.67
2023-03-14T11:35:21.220Z,19.90
2023-03-14T11:38:12.770Z,19.69
2023-03-14T11:40:41.117Z,18.63
2023-03-14T11:43:42.489Z,17.51
2023-03-14T11:46:42.470Z,16.32
2023-03-14T11:49:15.093Z,15.24
2023-03-14T11:51:47.143Z,14.73
2023-03-14T11:54:33.954Z,16.34
2023-03-14T11:57:06.514Z,17.58
2023-03-14T11:59:43.808Z,19.22
2023-03-14T12:02:30.838Z,19.02
2023-03-14T12:05:36.270Z,17.21
2023-03-14T12:08:28.524Z,17.65
2023-03-14T12:11:05.264Z,17.80
2023-03-14T12:13:38.752Z,15.03
2023-03-14T12:16:27.735Z,12.69
2023-03-14T12:18:55.393Z,10.68
2023-03-14T12:21:24.014Z,9.28
2023-03-14T12:23:53.810Z,8.96
2023-03-14T12:26:26.275Z,8.36
2023-03-14T12:28:58.911Z,8.12
2023-03-14T12:31:32.184Z,8.10
2023-03-14T12:34:25.639Z,7.85
2023-03-14T12:36:59.429Z,7.74
2023-03-14T12:39:36.428Z,7.77
2023-03-14T12:42:09.991Z,7.84
2023-03-14T12:44:49.190Z,7.61
2023-03-14T12:47:19.144Z,7.71
2023-03-14T12:49:58.400Z,7.72
2023-03-14T12:52:50.909Z,7.60
2023-03-14T12:55:33.504Z,7.65
2023-03-14T12:58:17.188Z,7.42
2023-03-14T13:00:44.417Z,7.31
2023-03-14T13:03:17.115Z,7.42
2023-03-14T13:06:02.986Z,7.56
2023-03-14T13:08:42.447Z,7.82
2023-03-14T13:11:17.033Z,7.76
2023-03-14T13:13:49.325Z,7.55
2023-03-14T13:16:23.202Z,7.55
2023-03-14T13:18:59.885Z,7.35
2023-03-14T13:21:29.150Z,7.51
2023-03-14T13:24:01.960Z,7.54
2023-03-14T13:26:43.752Z,7.54
2023-03-14T13:29:22.806Z,7.49
2023-03-14T13:31:53.095Z,7.49
2023-03-14T13:34:20.274Z,7.39
2023-03-14T13:36:50.411Z,7.53
2023-03-14T13:39:25.751Z,7.55
2023-03-14T13:41:54.043Z,7.39
2023-03-14T13:44:29.297Z,7.21
2023-03-14T13:47:01.054Z,7.13
2023-03-14T13:49:32.385Z,7.23
2023-03-14T13:51:59.903Z,7.30
2023-03-14T13:54:28.692Z,7.37
2023-03-14T13:57:06.908Z,7.23
2023-03-14T13:59:37.089Z,7.32
2023-03-14T14:02:23.589Z,7.25
2023-03-14T14:04:50.489Z,7.21
2023-03-14T14:07:21.647Z,7.06
2023-03-14T14:09:53.811Z,7.19
2023-03-14T14:12:36.551Z,7.19
2023-03-14T14:15:21.646Z,7.13
2023-03-14T14:18:00.351Z,6.98
2023-03-14T14:20:35.952Z,7.05
2023-03-14T14:23:10.724Z,6.96
2023-03-14T14:25:37.747Z,6.80
2023-03-14T14:28:31.021Z,6.77
2023-03-14T14:31:14.757Z,6.74
2023-03-14T14:33:47.891Z,6.77
2023-03-14T14:36:17.770Z,6.74
2023-03-14T14:38:51.274Z,6.68
2023-03-14T14:41:20.140Z,6.65
2023-03-14T14:43:48.033Z,6.68
2023-03-14T14:46:19.771Z,6.69
2023-03-14T14:48:50.630Z,6.58
2023-03-14T14:51:32.749Z,6.65
2023-03-14T14:54:05.271Z,6.58
2023-03-14T14:56:37.983Z,6.55
2023-03-14T14:59:08.247Z,6.63
2023-03-14T15:01:41.194Z,6.60
2023-03-14T15:04:14.838Z,6.52
2023-03-14T15:06:47.865Z,6.52
2023-03-14T15:09:15.607Z,6.42
2023-03-14T15:11:42.448Z,6.48
2023-03-14T15:14:09.289Z,6.42
2023-03-14T15:16:36.776Z,6.37
2023-03-14T15:19:23.683Z,6.33
2023-03-14T15:21:54.018Z,6.26
2023-03-14T15:24:21.232Z,6.31
2023-03-14T15:26:48.170Z,6.23
2023-03-14T15:29:15.094Z,6.21
2023-03-14T15:31:44.163Z,6.27
2023-03-14T15:34:11.227Z,6.17
2023-03-14T15:36:39.074Z,6.10
2023-03-14T15:39:07.801Z,6.14
2023-03-14T15:41:34.808Z,6.12
2023-03-14T15:44:01.963Z,6.11
2023-03-14T15:46:31.046Z,6.08
2023-03-14T15:48:58.504Z,6.00
2023-03-14T15:51:25.438Z,5.99
2023-03-14T15:53:52.841Z,5.89
2023-03-14T15:56:21.663Z,5.84
2023-03-14T15:58:48.864Z,5.85
2023-03-14T16:01:17.250Z,5.82
2023-03-14T16:03:47.599Z,5.74
2023-03-14T16:06:17.768Z,5.73
2023-03-14T16:08:44.567Z,5.73
2023-03-14T16:11:15.155Z,5.74
2023-03-14T16:13:42.240Z,5.69
2023-03-14T16:16:11.324Z,5.63
2023-03-14T16:18:39.718Z,5.62
2023-03-14T16:21:19.695Z,5.61
2023-03-14T16:23:46.831Z,5.56
2023-03-14T16:26:19.948Z,5.56
2023-03-14T16:28:47.741Z,5.58
2023-03-14T16:31:17.634Z,5.57
2023-03-14T16:33:45.041Z,5.52
2023-03-14T16:36:14.199Z,5.48
2023-03-14T16:38:43.448Z,5.53
2023-03-14T16:41:12.510Z,5.44
2023-03-14T16:43:39.793Z,5.51
2023-03-14T16:46:08.953Z,5.49
2023-03-14T16:48:35.889Z,5.43
2023-03-14T16:51:02.847Z,5.45
2023-03-14T16:53:30.432Z,5.45
2023-03-14T16:55:58.530Z,5.59
2023-03-14T16:58:25.911Z,5.53
2023-03-14T17:00:52.849Z,5.49
2023-03-14T17:03:20.153Z,5.57
2023-03-14T17:05:48.837Z,5.50
2023-03-14T17:08:17.867Z,5.39
2023-03-14T17:10:45.656Z,5.50
2023-03-14T17:13:13.391Z,5.49
2023-03-14T17:15:45.809Z,5.38
2023-03-14T17:18:12.822Z,5.41
2023-03-14T17:20:41.159Z,5.41
2023-03-14T17:23:09.084Z,5.42
2023-03-14T17:25:37.816Z,5.45
2023-03-14T17:28:05.818Z,5.44
2023-03-14T17:30:33.260Z,5.48
2023-03-14T17:33:00.192Z,5.46
2023-03-14T17:35:27.257Z,5.44
2023-03-14T17:37:54.336Z,5.62
2023-03-14T17:40:21.249Z,5.61
2023-03-14T17:42:48.158Z,5.52
2023-03-14T17:45:15.101Z,5.54
2023-03-14T17:47:42.019Z,5.47
2023-03-14T17:50:09.882Z,5.43
2023-03-14T17:52:37.232Z,5.43
2023-03-14T17:55:06.025Z,5.44
2023-03-14T17:57:33.599Z,5.53
2023-03-14T18:00:00.450Z,5.68
2023-03-14T18:02:27.520Z,5.52
2023-03-14T18:04:54.681Z,5.59
2023-03-14T18:07:22.002Z,5.66
2023-03-14T18:09:48.930Z,5.48
2023-03-14T18:12:16.065Z,5.56
2023-03-14T18:14:46.019Z,5.52
2023-03-14T18:17:13.470Z,5.45
2023-03-14T18:19:41.360Z,5.59
2023-03-14T18:22:08.775Z,5.52
2023-03-14T18:24:35.640Z,5.52
2023-03-14T18:27:04.179Z,5.61
2023-03-14T18:29:31.064Z,5.44
2023-03-14T18:31:58.447Z,5.52
2023-03-14T18:34:25.769Z,5.46
2023-03-14T18:36:53.285Z,5.38
2023-03-14T18:39:20.120Z,5.45
2023-03-14T18:41:47.093Z,5.41
2023-03-14T18:44:13.958Z,5.51
2023-03-14T18:46:42.563Z,5.55
2023-03-14T18:49:11.183Z,5.49
2023-03-14T18:51:38.230Z,5.61
2023-03-14T18:54:10.285Z,5.56
2023-03-14T18:56:39.886Z,5.53
2023-03-14T18:59:07.379Z,5.56
2023-03-14T19:01:34.598Z,5.51
2023-03-14T19:04:02.774Z,5.52
2023-03-14T19:06:34.039Z,5.67
2023-03-14T19:09:02.363Z,5.50
2023-03-14T19:11:29.285Z,5.48
2023-03-14T19:13:57.061Z,5.54
2023-03-14T19:16:24.906Z,5.38
2023-03-14T19:18:52.565Z,5.46
2023-03-14T19:21:35.658Z,5.44
2023-03-14T19:24:06.246Z,5.32
2023-03-14T19:41:39.602Z,5.06
2023-03-14T19:44:06.581Z,5.15
2023-03-14T19:46:36.097Z,5.16
2023-03-14T19:49:03.209Z,5.25
2023-03-14T19:51:31.354Z,5.27
2023-03-14T19:54:03.270Z,5.33
2023-03-14T19:56:30.198Z,5.33
2023-03-14T19:58:57.188Z,5.26
2023-03-14T20:01:24.471Z,5.35
2023-03-14T20:03:52.119Z,5.21
2023-03-14T20:06:18.933Z,5.23
2023-03-14T20:08:45.842Z,5.37
2023-03-14T20:11:12.791Z,5.27
2023-03-14T20:13:40.082Z,5.37
2023-03-14T20:16:10.738Z,5.44
2023-03-14T20:18:38.184Z,5.35
2023-03-14T20:21:10.380Z,5.51
2023-03-14T20:23:37.333Z,5.42
2023-03-14T20:26:04.961Z,5.34
2023-03-14T20:28:32.672Z,5.46
2023-03-14T20:30:59.978Z,5.48
2023-03-14T20:33:26.942Z,5.39
2023-03-14T20:35:56.184Z,5.52
2023-03-14T20:38:24.422Z,5.47
2023-03-14T20:40:51.343Z,5.33
2023-03-14T20:43:18.278Z,5.44
2023-03-14T20:45:55.179Z,5.39
2023-03-14T20:48:23.274Z,5.44
2023-03-14T20:50:50.539Z,5.49
2023-03-14T20:53:18.202Z,5.42
2023-03-14T20:55:45.714Z,5.38
2023-03-14T20:58:13.382Z,5.31
2023-03-14T21:00:48.818Z,5.22
2023-03-14T21:03:17.178Z,5.31
2023-03-14T21:05:49.036Z,5.41
2023-03-14T21:08:20.364Z,5.30
2023-03-14T21:10:52.641Z,5.51
2023-03-14T21:13:21.653Z,5.44
2023-03-14T21:15:48.974Z,5.34
2023-03-14T21:18:16.269Z,5.40
2023-03-14T21:20:43.865Z,5.39
2023-03-14T21:23:12.114Z,5.32
2023-03-14T21:25:41.839Z,5.41
2023-03-14T21:28:10.149Z,5.32
2023-03-14T21:30:37.354Z,5.29
2023-03-14T21:33:04.314Z,5.39
2023-03-14T21:35:31.204Z,5.35
2023-03-14T21:37:58.081Z,5.29
2023-03-14T21:40:25.632Z,5.24
2023-03-14T21:42:54.436Z,5.31
2023-03-14T21:45:25.949Z,5.23
2023-03-14T21:47:58.187Z,5.21
2023-03-14T21:50:26.743Z,5.27
2023-03-14T21:52:57.026Z,5.18
2023-03-14T21:55:25.704Z,5.18
2023-03-14T21:57:55.606Z,5.17
2023-03-14T22:00:25.718Z,5.15
2023-03-14T22:03:11.692Z,5.17
2023-03-14T22:05:43.586Z,5.18
2023-03-14T22:08:10.927Z,5.08
2023-03-14T22:10:50.475Z,5.09
2023-03-14T22:13:17.817Z,5.14
2023-03-14T22:15:46.374Z,5.11
2023-03-14T22:18:14.420Z,5.26
2023-03-14T22:20:42.044Z,5.33
2023-03-14T22:23:09.475Z,5.23
2023-03-14T22:25:39.846Z,5.29
2023-03-14T22:28:06.723Z,5.28
2023-03-14T22:30:33.657Z,5.13
2023-03-14T22:33:00.811Z,5.26
2023-03-14T22:35:28.483Z,5.25
2023-03-14T22:37:55.294Z,5.19
2023-03-14T22:40:22.249Z,5.21
2023-03-14T22:42:52.407Z,5.19
2023-03-14T22:45:19.565Z,5.17
2023-03-14T22:47:46.684Z,5.29
2023-03-14T22:50:13.822Z,5.40
2023-03-14T22:52:40.717Z,5.29
2023-03-14T22:55:08.129Z,5.26
2023-03-14T22:57:35.450Z,5.30
2023-03-14T23:00:04.460Z,5.33
2023-03-14T23:02:32.005Z,5.21
2023-03-14T23:04:59.066Z,5.30
2023-03-14T23:07:29.367Z,5.31
2023-03-14T23:09:56.494Z,5.31
2023-03-14T23:12:23.350Z,5.49
2023-03-14T23:14:50.190Z,5.44
2023-03-14T23:17:17.138Z,5.41
2023-03-14T23:19:45.628Z,5.51
2023-03-14T23:22:12.926Z,5.50
2023-03-14T23:24:39.806Z,5.49
2023-03-14T23:27:06.670Z,5.42
2023-03-14T23:29:33.605Z,5.66
2023-03-14T23:32:00.431Z,5.63
2023-03-14T23:34:27.362Z,5.38
2023-03-14T23:36:54.451Z,5.41
2023-03-14T23:39:21.268Z,5.43
2023-03-14T23:41:48.155Z,5.30
2023-03-14T23:44:15.176Z,5.35
2023-03-14T23:46:42.082Z,5.50
2023-03-14T23:49:08.941Z,5.40
2023-03-14T23:51:35.945Z,5.41
2023-03-14T23:54:02.807Z,5.51
2023-03-14T23:56:31.440Z,5.36
2023-03-14T23:58:58.596Z,5.26
